createdAt,value
2022-10-17T00:01:25.472Z,41.48
2022-10-17T00:04:27.692Z,41.51
2022-10-17T00:07:30.918Z,41.48
2022-10-17T00:10:33.332Z,41.26
2022-10-17T00:13:36.003Z,41.33
2022-10-17T00:16:38.189Z,41.42
2022-10-17T00:19:40.368Z,41.17
2022-10-17T00:22:42.726Z,41.22
2022-10-17T00:25:44.898Z,41.59
2022-10-17T00:28:48.763Z,41.06
2022-10-17T00:35:02.443Z,41.29
2022-10-17T00:38:04.608Z,41.32
2022-10-17T00:41:08.064Z,41.26
2022-10-17T00:44:31.903Z,41.09
2022-10-17T00:47:35.953Z,41.01
2022-10-17T00:50:41.731Z,40.86
2022-10-17T00:53:44.326Z,40.97
2022-10-17T00:56:47.824Z,40.99
2022-10-17T00:59:53.170Z,40.98
2022-10-17T01:02:55.486Z,41.11
2022-10-17T01:05:57.738Z,41.05
2022-10-17T01:09:00.174Z,40.95
2022-10-17T01:12:02.301Z,40.90
2022-10-17T01:15:47.572Z,41.17
2022-10-17T01:19:13.686Z,41.08
2022-10-17T01:22:22.215Z,41.05
2022-10-17T01:25:46.473Z,40.95
2022-10-17T01:29:00.519Z,40.85
2022-10-17T01:32:17.810Z,40.71
2022-10-17T01:36:06.948Z,40.66
2022-10-17T01:39:30.123Z,40.77
2022-10-17T01:42:48.724Z,40.61
2022-10-17T01:46:00.653Z,41.00
2022-10-17T01:49:05.857Z,40.81
2022-10-17T01:52:19.869Z,41.18
2022-10-17T01:55:29.306Z,40.90
2022-10-17T01:58:44.180Z,41.08
2022-10-17T02:01:52.376Z,41.00
2022-10-17T02:04:56.955Z,40.91
2022-10-17T02:07:59.179Z,40.84
2022-10-17T02:11:07.840Z,41.19
2022-10-17T02:14:42.016Z,40.93
2022-10-17T02:18:21.744Z,40.79
2022-10-17T02:22:01.838Z,40.92
2022-10-17T02:25:44.495Z,41.00
2022-10-17T02:29:00.613Z,40.98
2022-10-17T02:32:12.339Z,40.87
2022-10-17T02:35:15.991Z,41.20
2022-10-17T02:38:18.872Z,41.05
2022-10-17T02:41:24.387Z,41.07
2022-10-17T02:44:29.217Z,41.23
2022-10-17T02:48:03.430Z,41.09
2022-10-17T02:51:28.784Z,41.32
2022-10-17T02:54:45.797Z,41.13
2022-10-17T02:57:56.043Z,41.31
2022-10-17T03:00:59.443Z,40.98
2022-10-17T03:04:11.079Z,41.03
2022-10-17T03:07:13.589Z,41.27
2022-10-17T03:10:16.714Z,40.85
2022-10-17T03:13:19.333Z,41.47
2022-10-17T03:16:21.911Z,41.07
2022-10-17T03:19:24.292Z,41.10
2022-10-17T03:22:28.511Z,41.17
2022-10-17T03:25:32.742Z,41.19
2022-10-17T03:28:36.111Z,41.00
2022-10-17T03:31:38.565Z,41.21
2022-10-17T03:34:42.101Z,41.24
2022-10-17T03:37:45.364Z,41.05
2022-10-17T03:40:55.126Z,41.45
2022-10-17T03:43:57.562Z,41.11
2022-10-17T03:47:00.597Z,41.09
2022-10-17T03:50:03.451Z,40.89
2022-10-17T03:53:08.840Z,40.99
2022-10-17T03:56:13.797Z,41.10
2022-10-17T03:59:16.934Z,41.29
2022-10-17T04:02:26.151Z,41.24
2022-10-17T04:05:28.344Z,41.57
2022-10-17T04:08:32.056Z,41.35
2022-10-17T04:11:47.907Z,41.07
2022-10-17T04:14:50.121Z,41.60
2022-10-17T04:17:52.817Z,41.58
2022-10-17T04:20:55.005Z,41.20
2022-10-17T04:23:59.789Z,41.40
2022-10-17T04:27:31.071Z,41.38
2022-10-17T04:30:33.654Z,41.26
2022-10-17T04:33:35.971Z,41.52
2022-10-17T04:36:38.547Z,41.20
2022-10-17T04:39:40.742Z,41.42
2022-10-17T04:42:42.912Z,41.46
2022-10-17T04:45:47.663Z,41.23
2022-10-17T04:48:50.006Z,41.23
2022-10-17T04:51:52.312Z,41.34
2022-10-17T04:54:58.704Z,41.27
2022-10-17T04:58:00.896Z,41.36
2022-10-17T05:01:06.331Z,41.12
2022-10-17T05:04:08.798Z,41.40
2022-10-17T05:07:11.125Z,41.36
2022-10-17T05:10:29.026Z,41.19
2022-10-17T05:13:32.919Z,41.18
2022-10-17T05:16:35.929Z,41.20
2022-10-17T05:19:38.186Z,41.27
2022-10-17T05:22:42.352Z,41.41
2022-10-17T05:25:46.413Z,41.27
2022-10-17T05:28:48.675Z,41.38
2022-10-17T05:31:53.004Z,41.46
2022-10-17T05:34:55.613Z,41.54
2022-10-17T05:38:00.108Z,41.17
2022-10-17T05:41:04.702Z,41.32
2022-10-17T05:44:07.486Z,41.30
2022-10-17T05:47:15.471Z,41.18
2022-10-17T05:50:17.869Z,40.84
2022-10-17T05:53:40.940Z,41.08
2022-10-17T05:56:52.455Z,41.07
2022-10-17T05:59:57.459Z,41.36
2022-10-17T06:02:59.675Z,41.06
2022-10-17T06:06:10.141Z,41.52
2022-10-17T06:09:15.015Z,40.66
2022-10-17T06:12:21.288Z,40.40
2022-10-17T06:15:24.183Z,40.30
2022-10-17T06:18:33.043Z,40.27
2022-10-17T06:21:38.633Z,40.50
2022-10-17T06:24:46.249Z,39.90
2022-10-17T06:27:49.871Z,40.17
2022-10-17T06:30:52.134Z,40.03
2022-10-17T06:33:54.655Z,39.71
2022-10-17T06:40:07.944Z,39.39
2022-10-17T06:43:10.417Z,39.05
2022-10-17T06:46:30.673Z,39.20
2022-10-17T06:49:38.598Z,39.28
2022-10-17T06:52:58.670Z,38.79
2022-10-17T06:56:19.427Z,38.54
2022-10-17T06:59:29.046Z,39.01
2022-10-17T07:02:39.215Z,39.67
2022-10-17T07:05:41.445Z,39.86
2022-10-17T07:08:45.509Z,39.58
2022-10-17T07:11:50.510Z,39.74
2022-10-17T07:14:53.925Z,39.69
2022-10-17T07:17:57.516Z,39.33
2022-10-17T07:21:01.086Z,39.25
2022-10-17T07:24:03.712Z,39.25
2022-10-17T07:27:06.180Z,38.67
2022-10-17T07:30:10.386Z,38.51
2022-10-17T07:33:15.449Z,38.70
2022-10-17T07:36:18.434Z,37.84
2022-10-17T07:39:20.729Z,38.49
2022-10-17T07:42:23.342Z,37.81
2022-10-17T07:45:27.690Z,37.57
2022-10-17T07:48:30.654Z,37.67
2022-10-17T07:51:33.601Z,37.38
2022-10-17T07:54:35.797Z,37.65
2022-10-17T07:57:38.022Z,37.69
2022-10-17T08:00:40.652Z,37.93
2022-10-17T08:03:48.757Z,37.97
2022-10-17T08:06:56.398Z,37.74
2022-10-17T08:10:03.230Z,37.66
2022-10-17T08:13:07.650Z,37.88
2022-10-17T08:16:16.550Z,37.79
2022-10-17T08:19:18.810Z,37.45
2022-10-17T08:22:21.024Z,36.19
2022-10-17T08:25:23.895Z,35.46
2022-10-17T08:28:26.232Z,35.60
2022-10-17T08:31:28.848Z,35.97
2022-10-17T08:34:31.012Z,35.93
2022-10-17T08:37:33.537Z,35.78
2022-10-17T08:40:36.482Z,35.26
2022-10-17T08:44:22.075Z,35.09
2022-10-17T08:47:34.009Z,35.54
2022-10-17T08:50:45.733Z,35.80
2022-10-17T08:53:54.159Z,36.23
2022-10-17T08:56:57.630Z,35.86
2022-10-17T08:59:59.923Z,35.65
2022-10-17T09:03:32.162Z,35.71
2022-10-17T09:07:02.833Z,36.22
2022-10-17T09:10:26.575Z,35.87
2022-10-17T09:13:34.706Z,35.35
2022-10-17T09:17:07.438Z,35.74
2022-10-17T09:20:25.841Z,35.54
2022-10-17T09:23:34.883Z,35.42
2022-10-17T09:26:40.482Z,35.46
2022-10-17T09:29:48.776Z,34.64
2022-10-17T09:32:51.372Z,34.93
2022-10-17T09:35:54.772Z,35.15
2022-10-17T09:38:59.765Z,35.00
2022-10-17T09:42:03.180Z,35.21
2022-10-17T09:45:11.245Z,35.04
2022-10-17T09:48:25.085Z,35.33
2022-10-17T09:51:27.677Z,35.61
2022-10-17T09:54:53.245Z,35.68
2022-10-17T09:57:58.240Z,36.09
2022-10-17T10:01:26.132Z,34.25
2022-10-17T10:04:30.447Z,35.62
2022-10-17T10:07:36.613Z,36.21
2022-10-17T10:10:43.022Z,36.57
2022-10-17T10:13:47.822Z,35.12
2022-10-17T10:16:53.673Z,35.84
2022-10-17T10:19:56.271Z,35.79
2022-10-17T10:23:17.720Z,36.58
2022-10-17T10:26:29.506Z,36.21
2022-10-17T10:29:41.364Z,35.02
2022-10-17T10:32:47.874Z,35.09
2022-10-17T10:35:57.630Z,34.76
2022-10-17T10:39:02.458Z,33.99
2022-10-17T10:42:18.599Z,34.80
2022-10-17T10:45:43.346Z,33.94
2022-10-17T10:48:58.436Z,33.58
2022-10-17T10:52:03.572Z,33.48
2022-10-17T10:55:23.853Z,33.89
2022-10-17T10:58:53.774Z,33.04
2022-10-17T11:02:20.867Z,33.46
2022-10-17T11:05:28.875Z,34.02
2022-10-17T11:09:04.108Z,32.85
2022-10-17T11:12:13.204Z,32.92
2022-10-17T11:15:18.628Z,32.02
2022-10-17T11:18:30.080Z,31.62
2022-10-17T11:21:46.892Z,32.26
2022-10-17T11:24:56.894Z,32.09
2022-10-17T11:28:03.785Z,32.14
2022-10-17T11:31:13.475Z,32.50
2022-10-17T11:34:20.719Z,33.03
2022-10-17T11:37:40.253Z,32.50
2022-10-17T11:40:49.600Z,32.42
2022-10-17T11:43:59.651Z,32.71
2022-10-17T11:47:28.237Z,33.30
2022-10-17T11:54:15.989Z,33.70
2022-10-17T11:57:34.827Z,34.62
2022-10-17T12:00:48.875Z,34.39
2022-10-17T12:04:30.797Z,34.75
2022-10-17T12:07:48.669Z,33.74
2022-10-17T12:11:01.200Z,34.12
2022-10-17T12:14:23.813Z,33.29
2022-10-17T12:17:30.070Z,33.78
2022-10-17T12:20:35.528Z,33.45
2022-10-17T12:23:39.014Z,33.25
2022-10-17T12:26:41.251Z,34.42
2022-10-17T12:29:43.516Z,34.48
2022-10-17T12:33:07.836Z,35.01
2022-10-17T12:36:22.601Z,34.97
2022-10-17T12:39:24.702Z,34.21
2022-10-17T12:42:31.874Z,34.67
2022-10-17T12:45:51.401Z,34.07
2022-10-17T12:49:01.522Z,34.56
2022-10-17T12:52:20.869Z,34.57
2022-10-17T12:55:26.626Z,34.08
2022-10-17T12:58:30.705Z,34.38
2022-10-17T13:01:36.763Z,35.22
2022-10-17T13:04:39.070Z,35.32
2022-10-17T13:07:44.109Z,35.40
2022-10-17T13:10:51.598Z,34.59
2022-10-17T13:13:58.260Z,34.78
2022-10-17T13:17:05.513Z,34.89
2022-10-17T13:20:24.530Z,35.02
2022-10-17T13:23:34.769Z,34.77
2022-10-17T13:26:36.934Z,35.00
2022-10-17T13:29:44.388Z,34.63
2022-10-17T13:32:46.575Z,34.05
2022-10-17T13:36:00.113Z,35.09
2022-10-17T13:39:16.939Z,34.82
2022-10-17T13:42:39.378Z,34.82
2022-10-17T13:45:46.996Z,34.55
2022-10-17T13:48:49.649Z,34.03
2022-10-17T13:51:54.080Z,34.65
2022-10-17T13:55:08.174Z,33.65
2022-10-17T13:58:17.522Z,33.82
2022-10-17T14:01:21.127Z,34.03
2022-10-17T14:04:23.331Z,34.78
2022-10-17T14:08:11.325Z,33.56
2022-10-17T14:11:22.732Z,34.32
2022-10-17T14:14:26.143Z,35.11
2022-10-17T14:17:30.089Z,34.99
2022-10-17T14:21:30.406Z,33.90
2022-10-17T14:24:14.302Z,34.14
2022-10-17T14:27:39.695Z,33.96
2022-10-17T14:30:56.903Z,34.53
2022-10-17T14:34:01.752Z,34.02
2022-10-17T14:37:10.549Z,34.56
2022-10-17T14:40:17.860Z,33.83
2022-10-17T14:43:23.714Z,34.91
2022-10-17T14:46:26.353Z,34.58
2022-10-17T14:49:34.655Z,34.50
2022-10-17T14:52:38.858Z,34.79
2022-10-17T14:55:55.759Z,34.82
2022-10-17T14:58:57.988Z,34.68
2022-10-17T15:02:00.145Z,34.54
2022-10-17T15:05:02.284Z,34.72
2022-10-17T15:08:12.881Z,34.84
2022-10-17T15:11:15.023Z,34.91
2022-10-17T15:14:17.206Z,35.01
2022-10-17T15:17:23.384Z,34.91
2022-10-17T15:20:27.981Z,35.07
2022-10-17T15:23:30.116Z,35.45
2022-10-17T15:26:34.096Z,35.36
2022-10-17T15:29:36.298Z,35.65
2022-10-17T15:32:38.479Z,35.63
2022-10-17T15:35:42.617Z,35.60
2022-10-17T15:38:44.785Z,35.76
2022-10-17T15:41:48.082Z,35.61
2022-10-17T15:44:50.456Z,35.73
2022-10-17T15:47:55.838Z,35.61
2022-10-17T15:50:59.099Z,35.86
2022-10-17T15:54:02.194Z,35.87
2022-10-17T15:57:04.498Z,36.04
2022-10-17T16:00:16.557Z,36.00
2022-10-17T16:03:19.076Z,36.17
2022-10-17T16:06:22.818Z,36.16
2022-10-17T16:09:25.095Z,36.15
2022-10-17T16:12:29.030Z,36.50
2022-10-17T16:15:31.239Z,36.14
2022-10-17T16:18:33.386Z,36.16
2022-10-17T16:21:38.033Z,36.28
2022-10-17T16:24:40.234Z,36.39
2022-10-17T16:27:42.503Z,36.62
2022-10-17T16:30:46.125Z,36.63
2022-10-17T16:33:50.993Z,36.73
2022-10-17T16:36:53.154Z,36.85
2022-10-17T16:39:55.309Z,36.34
2022-10-17T16:42:57.491Z,36.81
2022-10-17T16:45:59.647Z,36.65
2022-10-17T16:49:04.145Z,36.97
2022-10-17T16:52:06.405Z,36.92
2022-10-17T16:55:09.882Z,36.76
2022-10-17T16:58:12.068Z,36.86
2022-10-17T17:01:20.005Z,37.33
2022-10-17T17:04:22.541Z,36.91
2022-10-17T17:07:24.773Z,37.37
2022-10-17T17:10:27.030Z,37.30
2022-10-17T17:13:30.086Z,37.47
2022-10-17T17:16:33.838Z,37.26
2022-10-17T17:19:36.006Z,37.76
2022-10-17T17:22:38.503Z,37.35
2022-10-17T17:25:40.726Z,37.59
2022-10-17T17:28:43.872Z,37.82
2022-10-17T17:31:47.059Z,37.55
2022-10-17T17:34:49.389Z,37.73
2022-10-17T17:37:51.633Z,37.73
2022-10-17T17:40:53.797Z,37.74
2022-10-17T17:43:56.834Z,38.02
2022-10-17T17:46:59.004Z,38.17
2022-10-17T17:50:02.380Z,38.10
2022-10-17T17:53:05.489Z,38.19
2022-10-17T17:56:10.921Z,38.18
2022-10-17T17:59:13.463Z,38.36
2022-10-17T18:02:15.899Z,38.37
2022-10-17T18:05:18.164Z,38.30
2022-10-17T18:08:20.692Z,38.16
2022-10-17T18:11:23.161Z,38.57
2022-10-17T18:14:25.882Z,38.31
2022-10-17T18:17:28.176Z,38.87
2022-10-17T18:20:30.507Z,38.91
2022-10-17T18:23:32.719Z,38.76
2022-10-17T18:26:35.296Z,39.01
2022-10-17T18:29:37.469Z,38.87
2022-10-17T18:32:40.692Z,39.19
2022-10-17T18:35:43.009Z,39.23
2022-10-17T18:38:45.304Z,39.28
2022-10-17T18:41:47.540Z,39.61
2022-10-17T18:44:49.970Z,39.47
2022-10-17T18:47:54.696Z,39.53
2022-10-17T18:50:56.861Z,39.59
2022-10-17T18:53:59.107Z,39.75
2022-10-17T18:57:01.302Z,39.79
2022-10-17T19:00:05.324Z,39.75
2022-10-17T19:03:08.317Z,40.10
2022-10-17T19:06:13.388Z,39.89
2022-10-17T19:09:16.009Z,39.94
2022-10-17T19:12:18.353Z,39.97
2022-10-17T19:15:23.734Z,40.15
2022-10-17T19:18:28.212Z,40.02
2022-10-17T19:21:30.861Z,40.42
2022-10-17T19:24:33.324Z,40.30
2022-10-17T19:27:35.756Z,40.39
2022-10-17T19:30:41.364Z,40.48
2022-10-17T19:33:43.587Z,40.47
2022-10-17T19:36:46.274Z,40.50
2022-10-17T19:39:49.218Z,40.63
2022-10-17T19:42:52.100Z,40.54
2022-10-17T19:45:59.140Z,40.71
2022-10-17T19:49:02.101Z,40.71
2022-10-17T19:52:05.610Z,40.86
2022-10-17T19:55:08.172Z,40.52
2022-10-17T19:58:10.804Z,40.74
2022-10-17T20:01:18.874Z,40.75
2022-10-17T20:04:21.928Z,40.65
2022-10-17T20:07:24.146Z,40.53
2022-10-17T20:10:26.320Z,40.56
2022-10-17T20:13:28.541Z,40.69
2022-10-17T20:16:32.440Z,40.59
2022-10-17T20:19:34.666Z,40.68
2022-10-17T20:22:36.867Z,40.77
2022-10-17T20:25:39.054Z,40.85
2022-10-17T20:28:41.855Z,40.61
2022-10-17T20:31:45.391Z,40.97
2022-10-17T20:34:47.552Z,40.90
2022-10-17T20:37:49.783Z,41.06
2022-10-17T20:40:51.965Z,40.83
2022-10-17T20:43:55.425Z,41.08
2022-10-17T20:47:02.098Z,40.73
2022-10-17T20:50:05.114Z,41.01
2022-10-17T20:53:35.025Z,40.92
2022-10-17T20:56:31.359Z,41.04
2022-10-17T20:59:36.039Z,41.12
2022-10-17T21:02:38.216Z,41.12
2022-10-17T21:05:40.583Z,41.08
2022-10-17T21:08:43.617Z,41.09
2022-10-17T21:11:45.870Z,41.12
2022-10-17T21:14:48.149Z,41.03
2022-10-17T21:17:50.298Z,41.29
2022-10-17T21:20:52.642Z,41.08
2022-10-17T21:23:58.215Z,41.27
2022-10-17T21:27:00.527Z,41.25
2022-10-17T21:30:04.538Z,41.22
2022-10-17T21:33:06.750Z,41.19
2022-10-17T21:36:09.836Z,41.27
2022-10-17T21:39:13.539Z,41.33
2022-10-17T21:42:15.746Z,41.15
2022-10-17T21:45:25.379Z,41.16
2022-10-17T21:48:27.891Z,41.19
2022-10-17T21:51:30.062Z,41.26
2022-10-17T21:54:32.259Z,41.21
2022-10-17T21:57:34.403Z,41.39
2022-10-17T22:00:36.637Z,41.28
2022-10-17T22:03:44.223Z,41.37
2022-10-17T22:06:51.236Z,41.37
2022-10-17T22:09:53.553Z,41.34
2022-10-17T22:12:55.709Z,41.39
2022-10-17T22:16:02.035Z,41.45
2022-10-17T22:19:06.665Z,41.46
2022-10-17T22:22:09.082Z,41.40
2022-10-17T22:25:11.389Z,41.34
2022-10-17T22:28:13.545Z,41.45
2022-10-17T22:31:15.755Z,41.36
2022-10-17T22:34:18.601Z,41.58
2022-10-17T22:37:20.823Z,41.69
2022-10-17T22:40:22.966Z,41.44
2022-10-17T22:43:25.220Z,41.66
2022-10-17T22:46:27.797Z,41.50
2022-10-17T22:49:29.961Z,41.57
2022-10-17T22:52:32.326Z,41.53
2022-10-17T22:55:34.696Z,41.48
2022-10-17T22:58:37.969Z,41.46
2022-10-17T23:01:40.165Z,41.66
2022-10-17T23:04:42.427Z,41.47
2022-10-17T23:07:44.580Z,41.52
2022-10-17T23:10:47.830Z,41.39
2022-10-17T23:13:50.041Z,41.50
2022-10-17T23:16:53.736Z,41.50
2022-10-17T23:19:57.720Z,41.54
2022-10-17T23:23:00.111Z,41.51
2022-10-17T23:26:11.367Z,41.46
2022-10-17T23:29:13.591Z,41.42
2022-10-17T23:32:15.750Z,41.45
2022-10-17T23:35:17.968Z,41.46
2022-10-17T23:38:20.122Z,41.38
2022-10-17T23:41:22.317Z,41.24
2022-10-17T23:44:24.542Z,41.43
2022-10-17T23:47:26.733Z,41.44
2022-10-17T23:50:28.890Z,41.29
2022-10-17T23:53:31.319Z,41.43
2022-10-17T23:56:33.506Z,41.45
2022-10-17T23:59:35.648Z,41.34
